createdAt,value
2017-08-17T00:00:13.377Z,5.90
2017-08-17T00:02:40.625Z,5.40
2017-08-17T00:05:07.852Z,6.20
2017-08-17T00:07:35.073Z,6.00
2017-08-17T00:10:02.294Z,6.13
2017-08-17T00:12:31.469Z,6.97
2017-08-17T00:14:58.684Z,6.00
2017-08-17T00:17:25.905Z,6.03
2017-08-17T00:19:53.124Z,5.90
2017-08-17T00:22:20.355Z,6.37
2017-08-17T00:24:47.586Z,6.70
2017-08-17T00:27:14.824Z,5.77
2017-08-17T00:29:42.040Z,6.30
2017-08-17T00:32:09.256Z,6.07
2017-08-17T00:34:36.490Z,5.13
2017-08-17T00:37:03.709Z,6.00
2017-08-17T00:39:30.936Z,5.83
2017-08-17T00:41:58.172Z,6.20
2017-08-17T00:44:27.765Z,5.90
2017-08-17T00:46:55.007Z,5.47
2017-08-17T00:49:22.235Z,6.30
2017-08-17T00:51:49.454Z,7.03
2017-08-17T00:54:16.696Z,7.57
2017-08-17T00:56:43.916Z,7.67
2017-08-17T00:59:11.148Z,8.47
2017-08-17T01:01:38.372Z,8.00
2017-08-17T01:04:05.600Z,6.40
2017-08-17T01:06:32.825Z,6.23
2017-08-17T01:09:02.033Z,6.47
2017-08-17T01:11:29.257Z,6.67
2017-08-17T01:13:56.492Z,6.13
2017-08-17T01:16:25.665Z,6.70
2017-08-17T01:18:54.212Z,6.95
2017-08-17T01:21:21.432Z,6.20
2017-08-17T01:23:48.653Z,5.50
2017-08-17T01:26:17.832Z,6.90
2017-08-17T01:28:45.068Z,5.90
2017-08-17T01:31:12.300Z,6.43
2017-08-17T01:33:39.515Z,5.93
2017-08-17T01:36:06.729Z,6.37
2017-08-17T01:38:33.961Z,6.40
2017-08-17T01:41:03.144Z,6.17
2017-08-17T01:43:30.653Z,6.12
2017-08-17T01:45:57.873Z,6.03
2017-08-17T01:48:25.092Z,6.80
2017-08-17T01:50:52.319Z,6.60
2017-08-17T01:53:19.545Z,6.70
2017-08-17T01:55:47.333Z,6.40
2017-08-17T01:58:15.405Z,6.40
2017-08-17T02:00:42.625Z,6.20
2017-08-17T02:03:10.909Z,6.47
2017-08-17T02:05:38.137Z,6.33
2017-08-17T02:08:05.353Z,6.87
2017-08-17T02:10:34.500Z,7.20
2017-08-17T02:13:01.540Z,6.80
2017-08-17T02:15:28.756Z,6.90
2017-08-17T02:17:55.976Z,6.20
2017-08-17T02:20:23.200Z,6.40
2017-08-17T02:22:50.422Z,6.23
2017-08-17T02:25:17.642Z,6.60
2017-08-17T02:27:46.957Z,6.30
2017-08-17T02:30:14.187Z,7.20
2017-08-17T02:32:43.358Z,6.90
2017-08-17T02:35:10.581Z,7.33
2017-08-17T02:37:37.806Z,7.27
2017-08-17T02:40:05.026Z,7.50
2017-08-17T02:42:32.245Z,7.00
2017-08-17T02:44:59.460Z,7.20
2017-08-17T02:47:26.693Z,7.30
2017-08-17T02:49:53.912Z,7.73
2017-08-17T02:52:21.139Z,7.70
2017-08-17T02:54:48.370Z,7.57
2017-08-17T02:57:17.525Z,7.30
2017-08-17T02:59:44.741Z,8.17
2017-08-17T03:02:11.961Z,8.70
2017-08-17T03:04:39.195Z,9.80
2017-08-17T03:07:06.434Z,9.27
2017-08-17T03:09:33.669Z,8.90
2017-08-17T03:12:00.896Z,9.40
2017-08-17T03:14:28.122Z,8.23
2017-08-17T03:16:56.642Z,8.82
2017-08-17T03:19:23.872Z,8.90
2017-08-17T03:21:51.096Z,8.00
2017-08-17T03:24:18.321Z,8.57
2017-08-17T03:26:45.822Z,8.55
2017-08-17T03:29:13.025Z,8.77
2017-08-17T03:31:40.252Z,8.50
2017-08-17T03:34:07.476Z,9.50
2017-08-17T03:36:34.709Z,8.63
2017-08-17T03:39:01.937Z,9.10
2017-08-17T03:41:29.165Z,8.60
2017-08-17T03:43:56.384Z,8.53
2017-08-17T03:46:23.609Z,8.70
2017-08-17T03:48:50.861Z,8.27
2017-08-17T03:51:18.377Z,9.70
2017-08-17T03:53:47.540Z,8.47
2017-08-17T03:56:14.770Z,9.73
2017-08-17T03:58:41.989Z,9.20
2017-08-17T04:01:09.221Z,7.90
2017-08-17T04:03:36.452Z,9.13
2017-08-17T04:06:03.680Z,9.17
2017-08-17T04:08:30.913Z,8.70
2017-08-17T04:10:58.146Z,8.83
2017-08-17T04:13:27.324Z,8.33
2017-08-17T04:15:54.553Z,8.70
2017-08-17T04:18:21.776Z,9.03
2017-08-17T04:20:48.997Z,8.27
2017-08-17T04:23:16.225Z,8.60
2017-08-17T04:25:45.299Z,7.90
2017-08-17T04:28:12.522Z,7.37
2017-08-17T04:30:39.745Z,8.30
2017-08-17T04:33:06.993Z,8.03
2017-08-17T04:35:34.221Z,8.10
2017-08-17T04:38:01.444Z,6.80
2017-08-17T04:40:30.621Z,6.87
2017-08-17T04:42:57.846Z,6.70
2017-08-17T04:45:25.072Z,6.97
2017-08-17T04:47:52.292Z,5.97
2017-08-17T04:50:19.525Z,6.60
2017-08-17T04:52:46.740Z,5.87
2017-08-17T04:55:13.957Z,5.70
2017-08-17T04:57:52.500Z,5.70
2017-08-17T05:00:21.707Z,6.60
2017-08-17T05:02:48.926Z,5.40
2017-08-17T05:05:16.152Z,5.33
2017-08-17T05:07:43.368Z,4.80
2017-08-17T05:10:10.589Z,5.40
2017-08-17T05:12:37.812Z,5.30
2017-08-17T05:15:05.038Z,5.77
2017-08-17T05:17:32.258Z,5.20
2017-08-17T05:19:59.528Z,6.13
2017-08-17T05:22:28.706Z,4.90
2017-08-17T05:24:55.923Z,4.57
2017-08-17T05:27:23.144Z,4.70
2017-08-17T05:29:50.361Z,4.90
2017-08-17T05:32:17.577Z,4.80
2017-08-17T05:34:44.809Z,4.40
2017-08-17T05:37:12.030Z,4.70
2017-08-17T05:39:39.245Z,4.87
2017-08-17T05:42:06.464Z,4.20
2017-08-17T05:44:33.693Z,4.40
2017-08-17T05:47:00.913Z,4.20
2017-08-17T05:49:28.149Z,4.53
2017-08-17T05:51:57.328Z,5.10
2017-08-17T05:54:24.547Z,5.40
2017-08-17T05:56:51.765Z,4.60
2017-08-17T05:59:18.987Z,5.57
2017-08-17T06:01:46.205Z,4.57
2017-08-17T06:04:13.425Z,4.90
2017-08-17T06:06:40.640Z,4.90
2017-08-17T06:09:07.857Z,5.00
2017-08-17T06:11:35.076Z,4.73
2017-08-17T06:14:02.305Z,4.20
2017-08-17T06:16:29.535Z,3.97
2017-08-17T06:18:56.772Z,4.23
2017-08-17T06:21:23.987Z,3.73
2017-08-17T06:23:51.212Z,3.93
2017-08-17T06:26:18.428Z,3.90
2017-08-17T06:28:45.653Z,3.67
2017-08-17T06:31:12.879Z,4.03
2017-08-17T06:33:40.105Z,3.70
2017-08-17T06:36:07.330Z,3.17
2017-08-17T06:38:34.576Z,2.90
2017-08-17T06:41:01.812Z,3.30
2017-08-17T06:43:29.045Z,3.30
2017-08-17T06:45:56.280Z,3.60
2017-08-17T06:48:23.514Z,3.37
2017-08-17T06:50:50.752Z,3.40
2017-08-17T06:53:17.804Z,3.67
2017-08-17T06:55:45.050Z,3.50
2017-08-17T06:58:12.276Z,3.73
2017-08-17T07:00:39.496Z,4.43
2017-08-17T07:03:06.712Z,4.10
2017-08-17T07:05:33.924Z,4.00
2017-08-17T07:08:01.168Z,3.40
2017-08-17T07:10:28.389Z,3.87
2017-08-17T07:12:57.564Z,3.40
2017-08-17T07:15:24.784Z,4.10
2017-08-17T07:17:52.003Z,4.10
2017-08-17T07:20:19.232Z,4.10
2017-08-17T07:22:46.448Z,3.53
2017-08-17T07:25:13.672Z,3.70
2017-08-17T07:27:40.904Z,3.50
2017-08-17T07:30:08.130Z,4.13
2017-08-17T07:32:35.352Z,4.00
2017-08-17T07:35:02.583Z,3.60
2017-08-17T07:37:29.800Z,3.80
2017-08-17T07:39:57.016Z,3.60
2017-08-17T07:42:24.239Z,3.90
2017-08-17T07:44:53.409Z,3.30
2017-08-17T07:47:20.629Z,3.10
2017-08-17T07:49:49.140Z,3.50
2017-08-17T07:52:16.364Z,4.97
2017-08-17T07:54:43.624Z,4.20
2017-08-17T07:57:10.848Z,3.70
2017-08-17T07:59:38.064Z,3.70
2017-08-17T08:02:05.281Z,3.50
2017-08-17T08:04:32.505Z,3.80
2017-08-17T08:06:59.728Z,3.30
2017-08-17T08:09:26.948Z,3.40
2017-08-17T08:11:54.168Z,3.13
2017-08-17T08:14:21.388Z,4.30
2017-08-17T08:16:50.560Z,4.20
2017-08-17T08:19:17.791Z,3.80
2017-08-17T08:21:46.941Z,3.30
2017-08-17T08:24:14.163Z,3.80
2017-08-17T08:26:41.385Z,3.63
2017-08-17T08:29:08.613Z,4.23
2017-08-17T08:31:35.835Z,4.30
2017-08-17T08:34:03.057Z,3.90
2017-08-17T08:36:30.285Z,4.10
2017-08-17T08:38:57.505Z,3.77
2017-08-17T08:41:24.727Z,3.27
2017-08-17T08:43:52.087Z,4.20
2017-08-17T08:46:19.323Z,3.83
2017-08-17T08:48:46.545Z,3.80
2017-08-17T08:51:13.768Z,4.20
2017-08-17T08:53:42.970Z,3.40
2017-08-17T08:56:10.189Z,3.70
2017-08-17T08:58:37.420Z,3.13
2017-08-17T09:01:04.646Z,4.10
2017-08-17T09:03:31.682Z,4.30
2017-08-17T09:06:00.830Z,3.47
2017-08-17T09:08:28.048Z,3.60
2017-08-17T09:10:55.273Z,3.60
2017-08-17T09:13:22.496Z,4.30
2017-08-17T09:15:49.717Z,4.10
2017-08-17T09:18:16.933Z,3.63
2017-08-17T09:20:46.109Z,4.03
2017-08-17T09:23:13.336Z,3.07
2017-08-17T09:25:40.568Z,3.60
2017-08-17T09:28:07.804Z,3.67
2017-08-17T09:30:35.028Z,3.63
2017-08-17T09:33:02.248Z,3.70
2017-08-17T09:35:29.477Z,3.17
2017-08-17T09:37:56.705Z,4.00
2017-08-17T09:40:23.920Z,4.00
2017-08-17T09:42:51.137Z,3.37
2017-08-17T09:45:18.362Z,3.20
2017-08-17T09:47:45.623Z,3.97
2017-08-17T09:50:12.844Z,3.73
2017-08-17T09:52:40.065Z,3.13
2017-08-17T09:55:07.294Z,3.40
2017-08-17T09:57:34.524Z,3.50
2017-08-17T10:00:01.745Z,3.30
2017-08-17T10:02:28.968Z,3.87
2017-08-17T10:04:56.209Z,3.37
2017-08-17T10:07:23.437Z,3.40
2017-08-17T10:09:52.600Z,3.40
2017-08-17T10:12:19.834Z,4.10
2017-08-17T10:14:47.065Z,3.50
2017-08-17T10:17:14.292Z,3.70
2017-08-17T10:19:41.512Z,3.40
2017-08-17T10:22:10.689Z,3.70
2017-08-17T10:24:37.913Z,3.37
2017-08-17T10:27:05.162Z,3.17
2017-08-17T10:29:34.393Z,3.50
2017-08-17T10:32:02.009Z,3.50
2017-08-17T10:34:29.229Z,2.90
2017-08-17T10:36:56.453Z,3.27
2017-08-17T10:39:23.668Z,3.20
2017-08-17T10:41:50.888Z,3.73
2017-08-17T10:44:18.112Z,3.40
2017-08-17T10:46:47.037Z,3.33
2017-08-17T10:49:14.258Z,3.73
2017-08-17T10:51:41.871Z,4.43
2017-08-17T10:54:09.100Z,4.23
2017-08-17T10:56:36.330Z,3.77
2017-08-17T10:59:05.500Z,4.03
2017-08-17T11:01:32.729Z,3.50
2017-08-17T11:03:59.956Z,3.43
2017-08-17T11:06:27.184Z,3.97
2017-08-17T11:08:54.405Z,3.50
2017-08-17T11:11:23.604Z,3.83
2017-08-17T11:13:50.824Z,3.30
2017-08-17T11:16:18.038Z,3.07
2017-08-17T11:18:47.209Z,3.30
2017-08-17T11:21:14.432Z,3.07
2017-08-17T11:23:41.656Z,4.07
2017-08-17T11:26:08.885Z,2.80
2017-08-17T11:28:36.113Z,3.97
2017-08-17T11:31:03.325Z,3.53
2017-08-17T11:33:30.549Z,3.97
2017-08-17T11:35:57.771Z,3.07
2017-08-17T11:38:24.997Z,3.07
2017-08-17T11:40:52.226Z,3.93
2017-08-17T11:43:21.386Z,3.57
2017-08-17T11:45:48.612Z,3.53
2017-08-17T11:48:15.809Z,3.80
2017-08-17T11:50:43.035Z,3.50
2017-08-17T11:53:10.265Z,2.97
2017-08-17T11:55:37.488Z,3.53
2017-08-17T11:58:04.710Z,3.93
2017-08-17T12:00:31.940Z,3.27
2017-08-17T12:02:59.166Z,3.27
2017-08-17T12:05:26.385Z,3.73
2017-08-17T12:07:53.608Z,3.10
2017-08-17T12:10:20.834Z,3.50
2017-08-17T12:12:48.055Z,3.57
2017-08-17T12:15:15.840Z,4.07
2017-08-17T12:17:43.060Z,3.80
2017-08-17T12:20:10.278Z,3.40
2017-08-17T12:22:37.506Z,2.77
2017-08-17T12:25:04.722Z,3.40
2017-08-17T12:27:31.940Z,3.03
2017-08-17T12:29:59.169Z,3.20
2017-08-17T12:32:26.393Z,2.93
2017-08-17T12:34:53.610Z,3.20
2017-08-17T12:37:20.840Z,3.30
2017-08-17T12:39:49.980Z,2.73
2017-08-17T12:42:17.208Z,3.27
2017-08-17T12:44:44.482Z,3.23
2017-08-17T12:47:11.704Z,3.00
2017-08-17T12:49:38.924Z,3.13
2017-08-17T12:52:06.143Z,3.00
2017-08-17T12:54:33.365Z,3.23
2017-08-17T12:57:00.592Z,3.10
2017-08-17T12:59:27.816Z,3.03
2017-08-17T13:01:55.031Z,2.80
2017-08-17T13:04:22.273Z,3.53
2017-08-17T13:06:50.165Z,2.67
2017-08-17T13:09:17.394Z,3.43
2017-08-17T13:11:44.676Z,3.57
2017-08-17T13:14:11.893Z,3.30
2017-08-17T13:16:39.993Z,3.20
2017-08-17T13:19:07.216Z,3.20
2017-08-17T13:21:36.372Z,2.87
2017-08-17T13:24:03.596Z,3.10
2017-08-17T13:26:30.824Z,3.00
2017-08-17T13:28:58.049Z,3.10
2017-08-17T13:31:27.221Z,3.43
2017-08-17T13:33:54.469Z,3.00
2017-08-17T13:36:21.692Z,3.00
2017-08-17T13:38:50.854Z,3.60
2017-08-17T13:41:18.072Z,3.33
2017-08-17T13:43:45.292Z,3.27
2017-08-17T13:46:12.520Z,3.30
2017-08-17T13:48:39.745Z,2.93
2017-08-17T13:51:06.964Z,3.63
2017-08-17T13:53:34.196Z,3.27
2017-08-17T13:56:01.430Z,3.20
2017-08-17T13:58:28.652Z,2.77
2017-08-17T14:00:55.880Z,3.47
2017-08-17T14:03:23.105Z,3.70
2017-08-17T14:05:50.328Z,3.30
2017-08-17T14:08:17.544Z,3.53
2017-08-17T14:10:44.784Z,3.53
2017-08-17T14:13:12.008Z,3.70
2017-08-17T14:15:39.237Z,3.13
2017-08-17T14:18:06.469Z,3.30
2017-08-17T14:20:34.277Z,3.00
2017-08-17T14:23:01.509Z,2.83
2017-08-17T14:25:30.656Z,3.80
2017-08-17T14:27:57.883Z,3.20
2017-08-17T14:30:26.256Z,3.60
2017-08-17T14:32:53.496Z,3.50
2017-08-17T14:35:20.752Z,3.93
2017-08-17T14:37:47.975Z,3.13
2017-08-17T14:40:17.145Z,3.73
2017-08-17T14:42:44.393Z,3.57
2017-08-17T14:45:11.609Z,3.07
2017-08-17T14:47:40.805Z,3.30
2017-08-17T14:50:08.024Z,3.60
2017-08-17T14:52:35.236Z,3.30
2017-08-17T14:55:04.414Z,3.00
2017-08-17T14:57:31.636Z,3.10
2017-08-17T14:59:58.865Z,3.30
2017-08-17T15:02:26.088Z,3.03
2017-08-17T15:04:53.308Z,3.10
2017-08-17T15:07:20.578Z,2.80
2017-08-17T15:09:48.660Z,3.80
2017-08-17T15:12:15.881Z,3.33
2017-08-17T15:14:43.105Z,3.50
2017-08-17T15:17:10.335Z,3.00
2017-08-17T15:19:37.560Z,2.93
2017-08-17T15:22:04.787Z,2.53
2017-08-17T15:24:32.039Z,3.80
2017-08-17T15:26:59.263Z,3.50
2017-08-17T15:29:26.508Z,3.40
2017-08-17T15:31:53.745Z,3.77
2017-08-17T15:34:20.970Z,3.60
2017-08-17T15:36:48.221Z,3.40
2017-08-17T15:39:15.445Z,3.90
2017-08-17T15:41:42.668Z,3.70
2017-08-17T15:44:09.898Z,3.77
2017-08-17T15:46:37.125Z,3.70
2017-08-17T15:49:04.349Z,3.60
2017-08-17T15:51:31.563Z,3.70
2017-08-17T15:53:58.791Z,3.23
2017-08-17T15:56:26.015Z,3.73
2017-08-17T15:58:55.196Z,3.40
2017-08-17T16:01:22.414Z,2.87
2017-08-17T16:03:49.641Z,3.17
2017-08-17T16:06:18.840Z,3.00
2017-08-17T16:08:46.052Z,3.03
2017-08-17T16:11:13.308Z,3.53
2017-08-17T16:13:40.531Z,3.30
2017-08-17T16:16:07.767Z,3.00
2017-08-17T16:18:34.988Z,3.77
2017-08-17T16:21:02.245Z,3.73
2017-08-17T16:23:30.064Z,3.73
2017-08-17T16:25:57.292Z,3.70
2017-08-17T16:28:24.532Z,3.50
2017-08-17T16:30:51.553Z,3.90
2017-08-17T16:33:18.760Z,3.20
2017-08-17T16:35:45.996Z,4.53
2017-08-17T16:38:13.225Z,4.30
2017-08-17T16:40:40.448Z,4.70
2017-08-17T16:43:07.676Z,7.90
2017-08-17T16:45:34.905Z,6.73
2017-08-17T16:48:02.142Z,10.17
2017-08-17T16:50:29.366Z,4.00
2017-08-17T16:52:56.604Z,4.50
2017-08-17T16:55:23.836Z,7.90
2017-08-17T16:57:51.068Z,11.83
2017-08-17T17:00:20.272Z,5.80
2017-08-17T17:02:47.494Z,4.60
2017-08-17T17:05:14.722Z,4.77
2017-08-17T17:07:43.912Z,4.37
2017-08-17T17:10:11.145Z,4.17
2017-08-17T17:12:38.373Z,5.03
2017-08-17T17:15:07.580Z,5.50
2017-08-17T17:17:34.808Z,4.93
2017-08-17T17:20:03.805Z,4.00
2017-08-17T17:22:31.033Z,3.30
2017-08-17T17:24:58.261Z,3.50
2017-08-17T17:27:25.495Z,5.20
2017-08-17T17:29:52.733Z,4.07
2017-08-17T17:32:19.960Z,4.40
2017-08-17T17:34:47.195Z,3.80
2017-08-17T17:37:14.432Z,4.93
2017-08-17T17:39:41.668Z,4.53
2017-08-17T17:42:08.914Z,5.50
2017-08-17T17:44:36.140Z,4.87
2017-08-17T17:47:03.365Z,4.87
2017-08-17T17:49:30.603Z,4.30
2017-08-17T17:51:57.852Z,5.37
2017-08-17T17:54:25.080Z,4.67
2017-08-17T17:56:52.309Z,4.90
2017-08-17T17:59:19.352Z,5.03
2017-08-17T18:01:46.577Z,5.33
2017-08-17T18:04:13.792Z,5.50
2017-08-17T18:06:41.018Z,4.90
2017-08-17T18:09:08.244Z,5.50
2017-08-17T18:11:37.414Z,4.00
2017-08-17T18:14:04.649Z,5.07
2017-08-17T18:16:31.873Z,5.77
2017-08-17T18:19:01.065Z,5.37
2017-08-17T18:21:28.287Z,5.67
2017-08-17T18:23:55.513Z,5.40
2017-08-17T18:26:22.738Z,5.77
2017-08-17T18:28:49.964Z,5.20
2017-08-17T18:31:17.185Z,5.57
2017-08-17T18:33:44.411Z,5.90
2017-08-17T18:36:11.632Z,5.30
2017-08-17T18:38:38.845Z,5.70
2017-08-17T18:41:06.068Z,5.40
2017-08-17T18:43:33.309Z,6.10
2017-08-17T18:46:00.533Z,5.70
2017-08-17T18:48:27.748Z,5.50
2017-08-17T18:50:54.968Z,5.77
2017-08-17T18:53:24.136Z,5.20
2017-08-17T18:56:23.501Z,5.10
2017-08-17T18:58:52.706Z,5.40
2017-08-17T19:01:19.942Z,5.43
2017-08-17T19:03:47.169Z,5.63
2017-08-17T19:06:14.392Z,5.73
2017-08-17T19:08:41.617Z,5.37
2017-08-17T19:11:08.874Z,5.70
2017-08-17T19:13:36.124Z,5.00
2017-08-17T19:16:03.349Z,5.30
2017-08-17T19:18:30.576Z,5.07
2017-08-17T19:20:57.802Z,5.00
2017-08-17T19:23:25.041Z,6.20
2017-08-17T19:25:54.217Z,6.10
2017-08-17T19:28:21.458Z,6.07
2017-08-17T19:30:48.696Z,5.73
2017-08-17T19:33:15.954Z,5.73
2017-08-17T19:35:43.184Z,6.00
2017-08-17T19:38:10.412Z,6.73
2017-08-17T19:40:37.649Z,5.60
2017-08-17T19:43:04.886Z,5.80
2017-08-17T19:45:32.470Z,5.87
2017-08-17T19:48:01.677Z,5.80
2017-08-17T19:50:28.929Z,5.77
2017-08-17T19:52:56.184Z,5.80
2017-08-17T19:55:23.413Z,4.93
2017-08-17T19:57:50.673Z,5.67
2017-08-17T20:00:17.907Z,6.63
2017-08-17T20:02:45.158Z,5.40
2017-08-17T20:05:12.383Z,6.17
2017-08-17T20:07:39.838Z,5.97
2017-08-17T20:10:07.064Z,6.37
2017-08-17T20:12:34.283Z,5.90
2017-08-17T20:15:01.504Z,5.53
2017-08-17T20:17:28.738Z,6.60
2017-08-17T20:19:55.965Z,5.70
2017-08-17T20:22:23.192Z,6.00
2017-08-17T20:24:50.421Z,5.97
2017-08-17T20:27:17.669Z,6.30
2017-08-17T20:29:44.894Z,5.63
2017-08-17T20:32:14.101Z,5.77
2017-08-17T20:34:41.320Z,6.30
2017-08-17T20:37:08.545Z,6.53
2017-08-17T20:39:35.777Z,6.00
2017-08-17T20:42:02.997Z,6.37
2017-08-17T20:44:30.224Z,6.80
2017-08-17T20:46:57.452Z,6.87
2017-08-17T20:49:24.678Z,5.77
2017-08-17T20:51:51.926Z,7.10
2017-08-17T20:54:19.180Z,6.57
2017-08-17T20:56:46.400Z,5.90
2017-08-17T20:59:13.636Z,6.27
2017-08-17T21:01:40.864Z,7.07
2017-08-17T21:04:08.082Z,6.77
2017-08-17T21:06:35.304Z,6.97
2017-08-17T21:09:03.780Z,6.60
2017-08-17T21:11:31.033Z,6.80
2017-08-17T21:13:58.261Z,6.70
2017-08-17T21:16:25.496Z,7.13
2017-08-17T21:18:52.733Z,6.63
2017-08-17T21:21:20.156Z,6.23
2017-08-17T21:23:47.388Z,6.67
2017-08-17T21:26:14.618Z,6.37
2017-08-17T21:28:41.848Z,7.13
2017-08-17T21:31:09.080Z,7.37
2017-08-17T21:33:36.334Z,6.30
2017-08-17T21:36:03.553Z,6.23
2017-08-17T21:38:30.783Z,6.43
2017-08-17T21:40:58.012Z,6.70
2017-08-17T21:43:25.239Z,7.90
2017-08-17T21:45:52.473Z,6.90
2017-08-17T21:48:19.698Z,6.63
2017-08-17T21:50:46.933Z,6.57
2017-08-17T21:53:14.162Z,6.60
2017-08-17T21:55:43.337Z,6.70
2017-08-17T21:58:10.565Z,6.43
2017-08-17T22:00:37.796Z,7.40
2017-08-17T22:03:05.021Z,6.40
2017-08-17T22:05:32.236Z,7.00
2017-08-17T22:07:59.461Z,6.13
2017-08-17T22:10:26.688Z,6.00
2017-08-17T22:12:55.849Z,6.63
2017-08-17T22:15:23.076Z,6.40
2017-08-17T22:17:52.260Z,7.00
2017-08-17T22:20:19.488Z,7.13
2017-08-17T22:22:46.720Z,6.00
2017-08-17T22:25:15.889Z,6.50
2017-08-17T22:27:43.117Z,6.83
2017-08-17T22:30:10.341Z,7.00
2017-08-17T22:32:39.510Z,6.57
2017-08-17T22:35:06.733Z,6.80
2017-08-17T22:37:34.797Z,5.77
2017-08-17T22:40:02.033Z,6.40
2017-08-17T22:42:30.112Z,6.23
2017-08-17T22:44:59.302Z,6.23
2017-08-17T22:47:26.264Z,7.70
2017-08-17T22:49:53.483Z,7.13
2017-08-17T22:52:20.714Z,6.77
2017-08-17T22:54:47.936Z,7.40
2017-08-17T22:57:15.165Z,7.40
2017-08-17T22:59:42.400Z,7.17
2017-08-17T23:02:09.627Z,7.20
2017-08-17T23:04:36.848Z,6.80
2017-08-17T23:07:04.078Z,6.70
2017-08-17T23:09:31.307Z,7.60
2017-08-17T23:11:58.533Z,7.60
2017-08-17T23:14:25.764Z,7.70
2017-08-17T23:16:52.987Z,7.33
2017-08-17T23:19:20.209Z,6.93
2017-08-17T23:21:47.432Z,7.47
2017-08-17T23:24:16.574Z,8.13
2017-08-17T23:26:43.817Z,6.97
2017-08-17T23:29:11.048Z,8.10
2017-08-17T23:31:38.281Z,7.87
2017-08-17T23:34:05.504Z,6.90
2017-08-17T23:36:32.728Z,7.90
2017-08-17T23:38:59.980Z,7.00
2017-08-17T23:41:27.205Z,7.50
2017-08-17T23:43:57.361Z,7.70
2017-08-17T23:46:24.585Z,7.77
2017-08-17T23:48:53.792Z,7.83
2017-08-17T23:51:21.021Z,7.83
2017-08-17T23:53:48.249Z,7.80
2017-08-17T23:56:15.482Z,6.80
2017-08-17T23:58:42.718Z,7.03
